sensor_id;sensor_type;location;lat;lon;timestamp;temperature;humidity
22173;DHT22;11252;50.596;17.648;2022-08-11T00:01:27;15.30;92.20
22173;DHT22;11252;50.596;17.648;2022-08-11T00:04:02;15.20;92.20
22173;DHT22;11252;50.596;17.648;2022-08-11T00:06:34;15.20;92.20
22173;DHT22;11252;50.596;17.648;2022-08-11T00:09:04;15.10;92.20
22173;DHT22;11252;50.596;17.648;2022-08-11T00:11:43;15.20;92.20
22173;DHT22;11252;50.596;17.648;2022-08-11T00:16:54;15.20;92.20
22173;DHT22;11252;50.596;17.648;2022-08-11T00:19:26;15.30;92.20
22173;DHT22;11252;50.596;17.648;2022-08-11T00:22:20;15.30;92.20
22173;DHT22;11252;50.596;17.648;2022-08-11T00:24:48;15.30;92.20
22173;DHT22;11252;50.596;17.648;2022-08-11T00:27:34;15.30;92.20
22173;DHT22;11252;50.596;17.648;2022-08-11T00:30:03;15.30;92.20
22173;DHT22;11252;50.596;17.648;2022-08-11T00:32:32;15.30;92.20
22173;DHT22;11252;50.596;17.648;2022-08-11T00:35:02;15.20;92.20
22173;DHT22;11252;50.596;17.648;2022-08-11T00:37:52;15.30;92.20
22173;DHT22;11252;50.596;17.648;2022-08-11T00:40:50;15.30;92.20
22173;DHT22;11252;50.596;17.648;2022-08-11T00:43:38;15.20;92.20
22173;DHT22;11252;50.596;17.648;2022-08-11T00:52:16;15.00;92.20
22173;DHT22;11252;50.596;17.648;2022-08-11T01:00:33;14.90;92.20
22173;DHT22;11252;50.596;17.648;2022-08-11T01:12:04;14.60;92.20
22173;DHT22;11252;50.596;17.648;2022-08-11T01:26:36;14.30;92.20
22173;DHT22;11252;50.596;17.648;2022-08-11T01:30:19;14.30;92.20
22173;DHT22;11252;50.596;17.648;2022-08-11T01:46:51;14.20;92.20
22173;DHT22;11252;50.596;17.648;2022-08-11T01:57:55;14.20;92.20
22173;DHT22;11252;50.596;17.648;2022-08-11T02:00:30;14.20;92.20
22173;DHT22;11252;50.596;17.648;2022-08-11T02:03:20;14.20;92.20
22173;DHT22;11252;50.596;17.648;2022-08-11T02:06:01;14.20;92.20
22173;DHT22;11252;50.596;17.648;2022-08-11T02:09:07;14.10;92.20
22173;DHT22;11252;50.596;17.648;2022-08-11T02:11:38;14.00;92.20
22173;DHT22;11252;50.596;17.648;2022-08-11T02:14:30;13.90;92.20
22173;DHT22;11252;50.596;17.648;2022-08-11T02:17:20;13.90;92.20
22173;DHT22;11252;50.596;17.648;2022-08-11T02:20:17;13.90;92.20
22173;DHT22;11252;50.596;17.648;2022-08-11T02:23:38;13.80;92.20
22173;DHT22;11252;50.596;17.648;2022-08-11T02:26:47;13.80;92.20
22173;DHT22;11252;50.596;17.648;2022-08-11T02:29:20;13.70;92.20
22173;DHT22;11252;50.596;17.648;2022-08-11T02:32:09;13.80;92.20
22173;DHT22;11252;50.596;17.648;2022-08-11T02:59:46;13.50;92.20
22173;DHT22;11252;50.596;17.648;2022-08-11T03:08:15;13.30;92.20
22173;DHT22;11252;50.596;17.648;2022-08-11T03:11:21;13.30;92.20
22173;DHT22;11252;50.596;17.648;2022-08-11T03:14:14;13.30;92.20
22173;DHT22;11252;50.596;17.648;2022-08-11T03:17:23;13.30;92.20
22173;DHT22;11252;50.596;17.648;2022-08-11T03:19:59;13.30;92.20
22173;DHT22;11252;50.596;17.648;2022-08-11T03:22:37;13.20;92.20
22173;DHT22;11252;50.596;17.648;2022-08-11T03:31:15;13.20;92.20
22173;DHT22;11252;50.596;17.648;2022-08-11T03:33:53;13.20;92.20
22173;DHT22;11252;50.596;17.648;2022-08-11T03:36:53;13.20;92.20
22173;DHT22;11252;50.596;17.648;2022-08-11T03:45:25;13.10;92.20
22173;DHT22;11252;50.596;17.648;2022-08-11T03:48:16;13.10;92.20
22173;DHT22;11252;50.596;17.648;2022-08-11T03:59:44;13.10;92.20
22173;DHT22;11252;50.596;17.648;2022-08-11T04:02:29;13.00;92.20
22173;DHT22;11252;50.596;17.648;2022-08-11T04:05:21;13.00;92.20
22173;DHT22;11252;50.596;17.648;2022-08-11T04:17:06;13.10;92.20
22173;DHT22;11252;50.596;17.648;2022-08-11T04:29:32;13.10;92.20
22173;DHT22;11252;50.596;17.648;2022-08-11T04:35:24;13.30;92.20
22173;DHT22;11252;50.596;17.648;2022-08-11T04:44:45;13.60;92.20
22173;DHT22;11252;50.596;17.648;2022-08-11T04:50:43;13.80;92.20
22173;DHT22;11252;50.596;17.648;2022-08-11T04:56:38;14.10;92.20
22173;DHT22;11252;50.596;17.648;2022-08-11T04:59:42;14.20;92.20
22173;DHT22;11252;50.596;17.648;2022-08-11T05:05:45;14.60;92.20
22173;DHT22;11252;50.596;17.648;2022-08-11T05:11:34;14.90;92.20
22173;DHT22;11252;50.596;17.648;2022-08-11T05:17:05;15.30;92.20
22173;DHT22;11252;50.596;17.648;2022-08-11T05:19:53;15.40;92.20
22173;DHT22;11252;50.596;17.648;2022-08-11T05:22:46;15.60;92.20
22173;DHT22;11252;50.596;17.648;2022-08-11T05:25:34;15.70;92.20
22173;DHT22;11252;50.596;17.648;2022-08-11T05:28:55;16.00;92.20
22173;DHT22;11252;50.596;17.648;2022-08-11T05:31:50;16.20;92.20
22173;DHT22;11252;50.596;17.648;2022-08-11T05:34:50;16.50;92.20
22173;DHT22;11252;50.596;17.648;2022-08-11T05:40:12;16.90;92.20
22173;DHT22;11252;50.596;17.648;2022-08-11T05:43:07;17.00;92.20
22173;DHT22;11252;50.596;17.648;2022-08-11T05:46:00;17.10;92.20
22173;DHT22;11252;50.596;17.648;2022-08-11T05:48:47;17.40;92.20
22173;DHT22;11252;50.596;17.648;2022-08-11T05:51:38;17.80;91.90
22173;DHT22;11252;50.596;17.648;2022-08-11T05:54:39;17.90;90.30
22173;DHT22;11252;50.596;17.648;2022-08-11T05:57:36;18.20;89.10
22173;DHT22;11252;50.596;17.648;2022-08-11T06:00:17;18.50;89.10
22173;DHT22;11252;50.596;17.648;2022-08-11T06:02:51;18.70;88.80
22173;DHT22;11252;50.596;17.648;2022-08-11T06:05:23;19.00;87.60
22173;DHT22;11252;50.596;17.648;2022-08-11T06:07:54;19.20;86.60
22173;DHT22;11252;50.596;17.648;2022-08-11T06:10:33;19.60;85.70
22173;DHT22;11252;50.596;17.648;2022-08-11T06:13:02;20.00;84.50
22173;DHT22;11252;50.596;17.648;2022-08-11T06:15:33;20.10;84.30
22173;DHT22;11252;50.596;17.648;2022-08-11T06:18:11;20.40;83.70
22173;DHT22;11252;50.596;17.648;2022-08-11T06:20:47;20.80;82.30
22173;DHT22;11252;50.596;17.648;2022-08-11T06:23:16;21.00;80.60
22173;DHT22;11252;50.596;17.648;2022-08-11T06:25:46;21.00;81.80
22173;DHT22;11252;50.596;17.648;2022-08-11T06:28:15;21.10;82.10
22173;DHT22;11252;50.596;17.648;2022-08-11T06:30:48;21.30;81.70
22173;DHT22;11252;50.596;17.648;2022-08-11T06:33:28;21.70;80.60
22173;DHT22;11252;50.596;17.648;2022-08-11T06:36:12;21.90;80.00
22173;DHT22;11252;50.596;17.648;2022-08-11T06:41:51;22.00;80.10
22173;DHT22;11252;50.596;17.648;2022-08-11T06:44:28;22.30;78.80
22173;DHT22;11252;50.596;17.648;2022-08-11T06:47:12;22.60;77.60
22173;DHT22;11252;50.596;17.648;2022-08-11T06:49:46;22.70;78.80
22173;DHT22;11252;50.596;17.648;2022-08-11T06:52:36;22.70;78.70
22173;DHT22;11252;50.596;17.648;2022-08-11T06:55:13;23.10;77.30
22173;DHT22;11252;50.596;17.648;2022-08-11T06:58:21;23.30;76.60
22173;DHT22;11252;50.596;17.648;2022-08-11T07:01:12;23.30;75.90
22173;DHT22;11252;50.596;17.648;2022-08-11T07:03:47;23.30;76.80
22173;DHT22;11252;50.596;17.648;2022-08-11T07:06:24;23.30;76.50
22173;DHT22;11252;50.596;17.648;2022-08-11T07:12:43;23.90;75.90
22173;DHT22;11252;50.596;17.648;2022-08-11T07:15:34;24.10;75.90
22173;DHT22;11252;50.596;17.648;2022-08-11T07:18:32;24.30;74.30
22173;DHT22;11252;50.596;17.648;2022-08-11T07:21:33;24.50;74.40
22173;DHT22;11252;50.596;17.648;2022-08-11T07:24:43;24.70;74.10
22173;DHT22;11252;50.596;17.648;2022-08-11T07:27:39;24.90;73.80
22173;DHT22;11252;50.596;17.648;2022-08-11T07:30:27;25.20;72.70
22173;DHT22;11252;50.596;17.648;2022-08-11T07:32:58;25.20;72.90
22173;DHT22;11252;50.596;17.648;2022-08-11T07:35:51;25.30;72.80
22173;DHT22;11252;50.596;17.648;2022-08-11T07:38:26;25.50;71.80
22173;DHT22;11252;50.596;17.648;2022-08-11T07:41:14;25.90;70.60
22173;DHT22;11252;50.596;17.648;2022-08-11T07:43:44;26.00;71.30
22173;DHT22;11252;50.596;17.648;2022-08-11T07:46:16;26.00;71.20
22173;DHT22;11252;50.596;17.648;2022-08-11T07:49:13;26.20;70.10
22173;DHT22;11252;50.596;17.648;2022-08-11T07:52:01;26.10;70.60
22173;DHT22;11252;50.596;17.648;2022-08-11T07:54:47;26.30;70.60
22173;DHT22;11252;50.596;17.648;2022-08-11T07:57:17;26.40;70.60
22173;DHT22;11252;50.596;17.648;2022-08-11T08:00:22;26.60;70.50
22173;DHT22;11252;50.596;17.648;2022-08-11T08:03:12;27.00;66.40
22173;DHT22;11252;50.596;17.648;2022-08-11T08:05:58;27.30;67.40
22173;DHT22;11252;50.596;17.648;2022-08-11T08:09:03;27.40;65.50
22173;DHT22;11252;50.596;17.648;2022-08-11T08:11:50;27.50;67.10
22173;DHT22;11252;50.596;17.648;2022-08-11T08:14:37;27.70;66.00
22173;DHT22;11252;50.596;17.648;2022-08-11T08:17:23;27.80;65.60
22173;DHT22;11252;50.596;17.648;2022-08-11T08:20:34;28.00;66.10
22173;DHT22;11252;50.596;17.648;2022-08-11T08:23:03;28.30;64.50
22173;DHT22;11252;50.596;17.648;2022-08-11T08:25:34;28.40;65.40
22173;DHT22;11252;50.596;17.648;2022-08-11T08:28:08;28.50;65.10
22173;DHT22;11252;50.596;17.648;2022-08-11T08:30:36;28.70;64.30
22173;DHT22;11252;50.596;17.648;2022-08-11T08:33:24;28.90;63.40
22173;DHT22;11252;50.596;17.648;2022-08-11T08:36:03;29.00;63.10
22173;DHT22;11252;50.596;17.648;2022-08-11T08:38:39;29.10;63.40
22173;DHT22;11252;50.596;17.648;2022-08-11T08:41:08;29.40;63.20
22173;DHT22;11252;50.596;17.648;2022-08-11T08:43:43;29.70;61.30
22173;DHT22;11252;50.596;17.648;2022-08-11T08:46:18;29.70;62.00
22173;DHT22;11252;50.596;17.648;2022-08-11T08:48:47;29.60;60.80
22173;DHT22;11252;50.596;17.648;2022-08-11T08:51:18;29.60;60.70
22173;DHT22;11252;50.596;17.648;2022-08-11T08:54:24;29.80;59.70
22173;DHT22;11252;50.596;17.648;2022-08-11T08:56:55;29.40;59.80
22173;DHT22;11252;50.596;17.648;2022-08-11T08:59:25;29.20;60.40
22173;DHT22;11252;50.596;17.648;2022-08-11T09:02:13;29.00;60.70
22173;DHT22;11252;50.596;17.648;2022-08-11T09:04:44;29.00;58.80
22173;DHT22;11252;50.596;17.648;2022-08-11T09:07:15;29.30;58.80
22173;DHT22;11252;50.596;17.648;2022-08-11T09:09:46;29.50;59.10
22173;DHT22;11252;50.596;17.648;2022-08-11T09:12:16;29.70;59.20
22173;DHT22;11252;50.596;17.648;2022-08-11T09:15:06;30.00;58.40
22173;DHT22;11252;50.596;17.648;2022-08-11T09:17:40;30.00;57.50
22173;DHT22;11252;50.596;17.648;2022-08-11T09:20:16;29.90;56.40
22173;DHT22;11252;50.596;17.648;2022-08-11T09:22:45;29.40;57.00
22173;DHT22;11252;50.596;17.648;2022-08-11T09:25:55;29.10;57.90
22173;DHT22;11252;50.596;17.648;2022-08-11T09:28:43;29.10;57.90
22173;DHT22;11252;50.596;17.648;2022-08-11T09:31:11;29.20;57.20
22173;DHT22;11252;50.596;17.648;2022-08-11T09:33:40;28.90;57.90
22173;DHT22;11252;50.596;17.648;2022-08-11T09:36:10;28.80;58.70
22173;DHT22;11252;50.596;17.648;2022-08-11T09:38:57;29.20;58.40
22173;DHT22;11252;50.596;17.648;2022-08-11T09:41:45;29.50;57.10
22173;DHT22;11252;50.596;17.648;2022-08-11T09:44:34;29.60;59.00
22173;DHT22;11252;50.596;17.648;2022-08-11T09:47:24;29.60;58.60
22173;DHT22;11252;50.596;17.648;2022-08-11T09:49:58;29.70;59.50
22173;DHT22;11252;50.596;17.648;2022-08-11T09:52:30;29.90;56.80
22173;DHT22;11252;50.596;17.648;2022-08-11T09:54:59;29.90;56.80
22173;DHT22;11252;50.596;17.648;2022-08-11T09:57:28;29.80;56.80
22173;DHT22;11252;50.596;17.648;2022-08-11T10:00:14;29.90;56.50
22173;DHT22;11252;50.596;17.648;2022-08-11T10:02:45;30.10;56.50
22173;DHT22;11252;50.596;17.648;2022-08-11T10:05:16;30.20;56.80
22173;DHT22;11252;50.596;17.648;2022-08-11T10:08:04;30.00;56.10
22173;DHT22;11252;50.596;17.648;2022-08-11T10:10:35;29.60;56.90
22173;DHT22;11252;50.596;17.648;2022-08-11T10:13:07;29.90;56.80
22173;DHT22;11252;50.596;17.648;2022-08-11T10:15:57;30.50;54.50
22173;DHT22;11252;50.596;17.648;2022-08-11T10:18:43;30.90;54.50
22173;DHT22;11252;50.596;17.648;2022-08-11T10:21:39;30.90;53.60
22173;DHT22;11252;50.596;17.648;2022-08-11T10:24:09;30.40;54.90
22173;DHT22;11252;50.596;17.648;2022-08-11T10:26:57;30.10;54.40
22173;DHT22;11252;50.596;17.648;2022-08-11T10:29:38;29.70;56.10
22173;DHT22;11252;50.596;17.648;2022-08-11T10:32:28;29.30;56.50
22173;DHT22;11252;50.596;17.648;2022-08-11T10:35:31;29.90;57.30
22173;DHT22;11252;50.596;17.648;2022-08-11T10:38:00;30.50;56.30
22173;DHT22;11252;50.596;17.648;2022-08-11T10:40:39;30.90;55.30
22173;DHT22;11252;50.596;17.648;2022-08-11T10:43:08;31.40;55.30
22173;DHT22;11252;50.596;17.648;2022-08-11T10:46:01;32.00;54.40
22173;DHT22;11252;50.596;17.648;2022-08-11T10:48:57;32.20;53.40
22173;DHT22;11252;50.596;17.648;2022-08-11T10:51:26;32.60;52.60
22173;DHT22;11252;50.596;17.648;2022-08-11T10:54:20;32.90;51.30
22173;DHT22;11252;50.596;17.648;2022-08-11T10:57:05;32.80;51.40
22173;DHT22;11252;50.596;17.648;2022-08-11T10:59:55;33.10;51.30
22173;DHT22;11252;50.596;17.648;2022-08-11T11:02:23;33.40;50.30
22173;DHT22;11252;50.596;17.648;2022-08-11T11:05:12;33.20;50.50
22173;DHT22;11252;50.596;17.648;2022-08-11T11:10:11;33.20;50.70
22173;DHT22;11252;50.596;17.648;2022-08-11T11:12:46;33.00;51.30
22173;DHT22;11252;50.596;17.648;2022-08-11T11:15:36;32.50;50.80
22173;DHT22;11252;50.596;17.648;2022-08-11T11:18:27;32.30;51.20
22173;DHT22;11252;50.596;17.648;2022-08-11T11:23:42;32.90;49.80
22173;DHT22;11252;50.596;17.648;2022-08-11T11:37:19;33.20;49.40
22173;DHT22;11252;50.596;17.648;2022-08-11T11:39:48;33.50;49.60
22173;DHT22;11252;50.596;17.648;2022-08-11T11:42:17;33.80;49.60
22173;DHT22;11252;50.596;17.648;2022-08-11T11:44:46;34.10;49.50
22173;DHT22;11252;50.596;17.648;2022-08-11T11:47:15;34.30;48.40
22173;DHT22;11252;50.596;17.648;2022-08-11T11:49:47;34.60;48.40
22173;DHT22;11252;50.596;17.648;2022-08-11T11:52:18;34.30;48.20
22173;DHT22;11252;50.596;17.648;2022-08-11T11:54:47;33.50;49.60
22173;DHT22;11252;50.596;17.648;2022-08-11T11:57:17;32.40;51.00
22173;DHT22;11252;50.596;17.648;2022-08-11T12:00:08;31.60;52.20
22173;DHT22;11252;50.596;17.648;2022-08-11T12:03:02;31.10;53.00
22173;DHT22;11252;50.596;17.648;2022-08-11T12:05:33;30.50;53.70
22173;DHT22;11252;50.596;17.648;2022-08-11T12:08:02;30.50;54.70
22173;DHT22;11252;50.596;17.648;2022-08-11T12:13:11;29.90;54.80
22173;DHT22;11252;50.596;17.648;2022-08-11T12:15:58;29.60;55.40
22173;DHT22;11252;50.596;17.648;2022-08-11T12:18:53;29.30;55.80
22173;DHT22;11252;50.596;17.648;2022-08-11T12:21:22;29.00;56.40
22173;DHT22;11252;50.596;17.648;2022-08-11T12:23:50;28.80;56.20
22173;DHT22;11252;50.596;17.648;2022-08-11T12:26:37;28.70;57.40
22173;DHT22;11252;50.596;17.648;2022-08-11T12:29:43;29.00;56.40
22173;DHT22;11252;50.596;17.648;2022-08-11T12:32:11;29.30;56.20
22173;DHT22;11252;50.596;17.648;2022-08-11T12:34:39;29.50;56.70
22173;DHT22;11252;50.596;17.648;2022-08-11T12:37:07;29.60;54.60
22173;DHT22;11252;50.596;17.648;2022-08-11T12:39:47;29.70;54.20
22173;DHT22;11252;50.596;17.648;2022-08-11T12:42:58;29.50;54.20
22173;DHT22;11252;50.596;17.648;2022-08-11T12:45:53;29.50;54.70
22173;DHT22;11252;50.596;17.648;2022-08-11T12:48:29;29.50;54.20
22173;DHT22;11252;50.596;17.648;2022-08-11T12:51:34;29.40;52.80
22173;DHT22;11252;50.596;17.648;2022-08-11T12:54:58;29.30;51.90
22173;DHT22;11252;50.596;17.648;2022-08-11T12:57:28;29.30;53.00
22173;DHT22;11252;50.596;17.648;2022-08-11T13:00:16;29.30;53.40
22173;DHT22;11252;50.596;17.648;2022-08-11T13:03:02;29.20;55.50
22173;DHT22;11252;50.596;17.648;2022-08-11T13:05:54;29.20;55.90
22173;DHT22;11252;50.596;17.648;2022-08-11T13:08:24;29.20;54.90
22173;DHT22;11252;50.596;17.648;2022-08-11T13:10:54;29.10;55.00
22173;DHT22;11252;50.596;17.648;2022-08-11T13:13:42;29.00;55.30
22173;DHT22;11252;50.596;17.648;2022-08-11T13:16:33;28.90;53.60
22173;DHT22;11252;50.596;17.648;2022-08-11T13:19:20;28.90;52.90
22173;DHT22;11252;50.596;17.648;2022-08-11T13:21:48;28.90;53.70
22173;DHT22;11252;50.596;17.648;2022-08-11T13:24:18;29.00;52.80
22173;DHT22;11252;50.596;17.648;2022-08-11T13:26:46;29.00;53.50
22173;DHT22;11252;50.596;17.648;2022-08-11T13:29:23;29.30;52.60
22173;DHT22;11252;50.596;17.648;2022-08-11T13:31:53;29.30;52.60
22173;DHT22;11252;50.596;17.648;2022-08-11T13:34:23;29.40;53.50
22173;DHT22;11252;50.596;17.648;2022-08-11T13:36:54;29.30;52.80
22173;DHT22;11252;50.596;17.648;2022-08-11T13:39:25;29.20;54.10
22173;DHT22;11252;50.596;17.648;2022-08-11T13:41:57;28.90;53.90
22173;DHT22;11252;50.596;17.648;2022-08-11T13:44:32;29.10;54.90
22173;DHT22;11252;50.596;17.648;2022-08-11T13:47:02;29.10;53.90
22173;DHT22;11252;50.596;17.648;2022-08-11T13:49:37;28.70;55.10
22173;DHT22;11252;50.596;17.648;2022-08-11T13:52:13;28.50;55.20
22173;DHT22;11252;50.596;17.648;2022-08-11T13:54:42;28.20;55.50
22173;DHT22;11252;50.596;17.648;2022-08-11T13:57:11;27.90;56.10
22173;DHT22;11252;50.596;17.648;2022-08-11T14:00:01;27.80;56.20
22173;DHT22;11252;50.596;17.648;2022-08-11T14:02:55;27.80;56.80
22173;DHT22;11252;50.596;17.648;2022-08-11T14:05:36;28.10;56.50
22173;DHT22;11252;50.596;17.648;2022-08-11T14:08:11;28.20;54.60
22173;DHT22;11252;50.596;17.648;2022-08-11T14:11:01;28.20;54.70
22173;DHT22;11252;50.596;17.648;2022-08-11T14:14:09;28.30;55.90
22173;DHT22;11252;50.596;17.648;2022-08-11T14:16:41;28.10;56.20
22173;DHT22;11252;50.596;17.648;2022-08-11T14:19:12;28.10;56.70
22173;DHT22;11252;50.596;17.648;2022-08-11T14:21:42;28.10;56.70
22173;DHT22;11252;50.596;17.648;2022-08-11T14:24:38;27.80;57.30
22173;DHT22;11252;50.596;17.648;2022-08-11T14:27:09;27.50;57.30
22173;DHT22;11252;50.596;17.648;2022-08-11T14:29:58;27.40;56.90
22173;DHT22;11252;50.596;17.648;2022-08-11T14:32:25;27.30;57.70
22173;DHT22;11252;50.596;17.648;2022-08-11T14:34:53;27.50;57.80
22173;DHT22;11252;50.596;17.648;2022-08-11T14:37:23;27.60;56.60
22173;DHT22;11252;50.596;17.648;2022-08-11T14:39:53;27.60;56.80
22173;DHT22;11252;50.596;17.648;2022-08-11T14:42:30;27.70;57.40
22173;DHT22;11252;50.596;17.648;2022-08-11T14:45:16;27.80;56.70
22173;DHT22;11252;50.596;17.648;2022-08-11T14:48:22;27.90;57.10
22173;DHT22;11252;50.596;17.648;2022-08-11T14:50:50;28.10;57.20
22173;DHT22;11252;50.596;17.648;2022-08-11T14:53:20;28.20;54.80
22173;DHT22;11252;50.596;17.648;2022-08-11T14:55:49;28.30;55.10
22173;DHT22;11252;50.596;17.648;2022-08-11T14:58:38;28.20;55.30
22173;DHT22;11252;50.596;17.648;2022-08-11T15:01:06;28.10;55.30
22173;DHT22;11252;50.596;17.648;2022-08-11T15:03:54;28.00;55.80
22173;DHT22;11252;50.596;17.648;2022-08-11T15:06:42;27.80;55.70
22173;DHT22;11252;50.596;17.648;2022-08-11T15:09:10;27.60;56.10
22173;DHT22;11252;50.596;17.648;2022-08-11T15:11:37;27.50;56.30
22173;DHT22;11252;50.596;17.648;2022-08-11T15:14:24;27.40;57.20
22173;DHT22;11252;50.596;17.648;2022-08-11T15:17:11;27.50;57.20
22173;DHT22;11252;50.596;17.648;2022-08-11T15:19:40;27.50;56.60
22173;DHT22;11252;50.596;17.648;2022-08-11T15:22:28;27.60;57.00
22173;DHT22;11252;50.596;17.648;2022-08-11T15:25:14;27.50;56.60
22173;DHT22;11252;50.596;17.648;2022-08-11T15:27:45;27.40;56.90
22173;DHT22;11252;50.596;17.648;2022-08-11T15:30:32;27.30;57.30
22173;DHT22;11252;50.596;17.648;2022-08-11T15:33:19;27.20;57.80
22173;DHT22;11252;50.596;17.648;2022-08-11T15:36:07;27.10;57.60
22173;DHT22;11252;50.596;17.648;2022-08-11T15:39:00;27.00;57.80
22173;DHT22;11252;50.596;17.648;2022-08-11T15:41:40;26.80;57.40
22173;DHT22;11252;50.596;17.648;2022-08-11T15:44:30;26.70;57.70
22173;DHT22;11252;50.596;17.648;2022-08-11T15:47:41;26.60;58.90
22173;DHT22;11252;50.596;17.648;2022-08-11T15:50:15;26.50;62.40
22173;DHT22;11252;50.596;17.648;2022-08-11T15:53:06;26.30;63.10
22173;DHT22;11252;50.596;17.648;2022-08-11T15:55:35;26.10;62.60
22173;DHT22;11252;50.596;17.648;2022-08-11T15:58:07;26.00;61.90
22173;DHT22;11252;50.596;17.648;2022-08-11T16:00:56;25.90;62.10
22173;DHT22;11252;50.596;17.648;2022-08-11T16:03:56;25.20;65.40
22173;DHT22;11252;50.596;17.648;2022-08-11T16:06:59;24.40;67.90
22173;DHT22;11252;50.596;17.648;2022-08-11T16:12:27;23.60;70.30
22173;DHT22;11252;50.596;17.648;2022-08-11T16:14:58;23.20;71.30
22173;DHT22;11252;50.596;17.648;2022-08-11T16:17:50;23.00;71.70
22173;DHT22;11252;50.596;17.648;2022-08-11T16:20:23;22.80;73.10
22173;DHT22;11252;50.596;17.648;2022-08-11T16:22:56;22.50;75.10
22173;DHT22;11252;50.596;17.648;2022-08-11T16:25:33;22.20;76.50
22173;DHT22;11252;50.596;17.648;2022-08-11T16:28:22;21.90;78.20
22173;DHT22;11252;50.596;17.648;2022-08-11T16:30:52;21.70;79.50
22173;DHT22;11252;50.596;17.648;2022-08-11T16:33:20;21.40;80.20
22173;DHT22;11252;50.596;17.648;2022-08-11T16:36:10;21.30;81.00
22173;DHT22;11252;50.596;17.648;2022-08-11T16:38:58;21.10;83.00
22173;DHT22;11252;50.596;17.648;2022-08-11T16:41:30;21.00;83.50
22173;DHT22;11252;50.596;17.648;2022-08-11T16:44:18;20.90;83.80
22173;DHT22;11252;50.596;17.648;2022-08-11T16:47:07;20.70;84.60
22173;DHT22;11252;50.596;17.648;2022-08-11T16:49:38;20.60;85.10
22173;DHT22;11252;50.596;17.648;2022-08-11T16:52:16;20.60;85.70
22173;DHT22;11252;50.596;17.648;2022-08-11T16:54:45;20.60;85.60
22173;DHT22;11252;50.596;17.648;2022-08-11T16:57:33;20.50;85.90
22173;DHT22;11252;50.596;17.648;2022-08-11T17:00:20;20.50;85.90
22173;DHT22;11252;50.596;17.648;2022-08-11T17:02:53;20.30;86.00
22173;DHT22;11252;50.596;17.648;2022-08-11T17:05:44;20.20;87.00
22173;DHT22;11252;50.596;17.648;2022-08-11T17:08:38;20.10;87.00
22173;DHT22;11252;50.596;17.648;2022-08-11T17:11:27;20.10;87.90
22173;DHT22;11252;50.596;17.648;2022-08-11T17:14:16;20.00;88.00
22173;DHT22;11252;50.596;17.648;2022-08-11T17:17:11;19.90;88.00
22173;DHT22;11252;50.596;17.648;2022-08-11T17:19:46;19.80;88.50
22173;DHT22;11252;50.596;17.648;2022-08-11T17:22:36;19.80;88.70
22173;DHT22;11252;50.596;17.648;2022-08-11T17:25:25;19.90;88.40
22173;DHT22;11252;50.596;17.648;2022-08-11T17:27:55;19.90;88.20
22173;DHT22;11252;50.596;17.648;2022-08-11T17:30:32;20.00;88.30
22173;DHT22;11252;50.596;17.648;2022-08-11T17:33:21;20.00;88.80
22173;DHT22;11252;50.596;17.648;2022-08-11T17:36:09;20.00;89.80
22173;DHT22;11252;50.596;17.648;2022-08-11T17:38:39;19.90;89.80
22173;DHT22;11252;50.596;17.648;2022-08-11T17:41:07;19.60;90.90
22173;DHT22;11252;50.596;17.648;2022-08-11T17:43:55;19.30;92.00
22173;DHT22;11252;50.596;17.648;2022-08-11T17:46:44;19.10;92.20
22173;DHT22;11252;50.596;17.648;2022-08-11T17:49:34;19.00;92.20
22173;DHT22;11252;50.596;17.648;2022-08-11T17:52:06;18.90;92.20
22173;DHT22;11252;50.596;17.648;2022-08-11T17:55:00;18.70;92.20
22173;DHT22;11252;50.596;17.648;2022-08-11T17:58:07;18.70;92.20
22173;DHT22;11252;50.596;17.648;2022-08-11T18:00:53;18.70;92.20
22173;DHT22;11252;50.596;17.648;2022-08-11T18:03:27;18.70;92.20
22173;DHT22;11252;50.596;17.648;2022-08-11T18:06:01;18.60;92.20
22173;DHT22;11252;50.596;17.648;2022-08-11T18:08:33;18.50;92.20
22173;DHT22;11252;50.596;17.648;2022-08-11T18:11:21;18.50;92.20
22173;DHT22;11252;50.596;17.648;2022-08-11T18:14:30;18.60;92.20
22173;DHT22;11252;50.596;17.648;2022-08-11T18:17:19;18.60;92.20
22173;DHT22;11252;50.596;17.648;2022-08-11T18:20:06;18.70;92.20
22173;DHT22;11252;50.596;17.648;2022-08-11T18:22:55;18.80;92.20
22173;DHT22;11252;50.596;17.648;2022-08-11T18:25:44;18.90;92.20
22173;DHT22;11252;50.596;17.648;2022-08-11T18:28:44;18.90;92.20
22173;DHT22;11252;50.596;17.648;2022-08-11T18:31:33;18.90;92.20
22173;DHT22;11252;50.596;17.648;2022-08-11T18:34:27;18.90;92.20
22173;DHT22;11252;50.596;17.648;2022-08-11T18:37:24;18.80;92.20
22173;DHT22;11252;50.596;17.648;2022-08-11T18:40:17;18.60;92.20
22173;DHT22;11252;50.596;17.648;2022-08-11T18:43:07;18.40;92.20
22173;DHT22;11252;50.596;17.648;2022-08-11T18:46:00;18.30;92.20
22173;DHT22;11252;50.596;17.648;2022-08-11T18:49:16;18.30;92.20
22173;DHT22;11252;50.596;17.648;2022-08-11T18:52:20;18.30;92.20
22173;DHT22;11252;50.596;17.648;2022-08-11T18:55:10;18.40;92.20
22173;DHT22;11252;50.596;17.648;2022-08-11T18:58:01;18.40;92.20
22173;DHT22;11252;50.596;17.648;2022-08-11T19:00:48;18.50;92.20
22173;DHT22;11252;50.596;17.648;2022-08-11T19:03:36;18.40;92.20
22173;DHT22;11252;50.596;17.648;2022-08-11T19:06:37;18.40;92.20
22173;DHT22;11252;50.596;17.648;2022-08-11T19:09:25;18.40;92.20
22173;DHT22;11252;50.596;17.648;2022-08-11T19:12:13;18.30;92.20
22173;DHT22;11252;50.596;17.648;2022-08-11T19:15:00;18.20;92.20
22173;DHT22;11252;50.596;17.648;2022-08-11T19:17:48;18.20;92.20
22173;DHT22;11252;50.596;17.648;2022-08-11T19:20:35;18.10;92.20
22173;DHT22;11252;50.596;17.648;2022-08-11T19:23:42;17.90;92.20
22173;DHT22;11252;50.596;17.648;2022-08-11T19:26:28;17.80;92.20
22173;DHT22;11252;50.596;17.648;2022-08-11T19:29:19;17.80;92.20
22173;DHT22;11252;50.596;17.648;2022-08-11T19:32:28;17.80;92.20
22173;DHT22;11252;50.596;17.648;2022-08-11T19:35:15;17.80;92.20
22173;DHT22;11252;50.596;17.648;2022-08-11T19:38:01;17.80;92.20
22173;DHT22;11252;50.596;17.648;2022-08-11T19:40:48;17.80;92.20
22173;DHT22;11252;50.596;17.648;2022-08-11T19:43:36;17.60;92.20
22173;DHT22;11252;50.596;17.648;2022-08-11T19:46:23;17.60;92.20
22173;DHT22;11252;50.596;17.648;2022-08-11T19:49:11;17.60;92.20
22173;DHT22;11252;50.596;17.648;2022-08-11T19:51:58;17.60;92.20
22173;DHT22;11252;50.596;17.648;2022-08-11T19:54:45;17.50;92.20
22173;DHT22;11252;50.596;17.648;2022-08-11T19:57:31;17.50;92.20